sensor_id;sensor_type;location;lat;lon;timestamp;pressure;altitude;pressure_sealevel;temperature;humidity
58662;BME280;44432;49.786;22.760;2024-02-21T00:01:10;99856.40;;;5.77;88.58
58662;BME280;44432;49.786;22.760;2024-02-21T00:03:44;99857.19;;;5.76;88.58
58662;BME280;44432;49.786;22.760;2024-02-21T00:06:15;99857.19;;;5.76;88.59
58662;BME280;44432;49.786;22.760;2024-02-21T00:08:46;99857.33;;;5.75;88.80
58662;BME280;44432;49.786;22.760;2024-02-21T00:11:19;99860.51;;;5.73;88.47
58662;BME280;44432;49.786;22.760;2024-02-21T00:13:50;99860.83;;;5.73;88.53
58662;BME280;44432;49.786;22.760;2024-02-21T00:16:21;99859.81;;;5.73;88.43
58662;BME280;44432;49.786;22.760;2024-02-21T00:18:52;99863.42;;;5.72;88.74
58662;BME280;44432;49.786;22.760;2024-02-21T00:21:22;99863.65;;;5.71;88.57
58662;BME280;44432;49.786;22.760;2024-02-21T00:23:53;99862.88;;;5.69;88.73
58662;BME280;44432;49.786;22.760;2024-02-21T00:26:24;99864.67;;;5.69;88.76
58662;BME280;44432;49.786;22.760;2024-02-21T00:28:55;99861.59;;;5.68;88.52
58662;BME280;44432;49.786;22.760;2024-02-21T00:31:26;99858.13;;;5.66;88.71
58662;BME280;44432;49.786;22.760;2024-02-21T00:33:57;99853.38;;;5.63;88.65
58662;BME280;44432;49.786;22.760;2024-02-21T00:36:28;99853.77;;;5.63;88.86
58662;BME280;44432;49.786;22.760;2024-02-21T00:38:59;99850.92;;;5.60;88.39
58662;BME280;44432;49.786;22.760;2024-02-21T00:41:30;99849.02;;;5.58;88.76
58662;BME280;44432;49.786;22.760;2024-02-21T00:44:00;99848.67;;;5.56;88.65
58662;BME280;44432;49.786;22.760;2024-02-21T00:46:31;99843.80;;;5.53;88.50
58662;BME280;44432;49.786;22.760;2024-02-21T00:49:02;99845.77;;;5.53;88.51
58662;BME280;44432;49.786;22.760;2024-02-21T00:51:33;99844.34;;;5.51;88.43
58662;BME280;44432;49.786;22.760;2024-02-21T00:54:04;99844.83;;;5.50;88.82
58662;BME280;44432;49.786;22.760;2024-02-21T00:56:35;99839.95;;;5.48;88.83
58662;BME280;44432;49.786;22.760;2024-02-21T00:59:06;99835.95;;;5.48;88.69
58662;BME280;44432;49.786;22.760;2024-02-21T01:01:37;99835.83;;;5.48;88.91
58662;BME280;44432;49.786;22.760;2024-02-21T01:04:07;99837.65;;;5.47;88.92
58662;BME280;44432;49.786;22.760;2024-02-21T01:06:38;99838.21;;;5.47;89.09
58662;BME280;44432;49.786;22.760;2024-02-21T01:09:12;99833.80;;;5.46;89.14
58662;BME280;44432;49.786;22.760;2024-02-21T01:11:43;99834.09;;;5.45;89.04
58662;BME280;44432;49.786;22.760;2024-02-21T01:14:15;99828.96;;;5.44;88.83
58662;BME280;44432;49.786;22.760;2024-02-21T01:16:45;99833.64;;;5.42;89.00
58662;BME280;44432;49.786;22.760;2024-02-21T01:19:16;99835.02;;;5.41;89.03
58662;BME280;44432;49.786;22.760;2024-02-21T01:21:47;99835.45;;;5.40;89.16
58662;BME280;44432;49.786;22.760;2024-02-21T01:24:18;99835.99;;;5.40;88.92
58662;BME280;44432;49.786;22.760;2024-02-21T01:26:49;99834.30;;;5.40;89.02
58662;BME280;44432;49.786;22.760;2024-02-21T01:29:20;99834.20;;;5.39;88.99
58662;BME280;44432;49.786;22.760;2024-02-21T01:31:51;99836.36;;;5.38;89.08
58662;BME280;44432;49.786;22.760;2024-02-21T01:34:21;99839.98;;;5.39;89.13
58662;BME280;44432;49.786;22.760;2024-02-21T01:36:52;99838.84;;;5.38;89.30
58662;BME280;44432;49.786;22.760;2024-02-21T01:39:23;99836.36;;;5.38;89.36
58662;BME280;44432;49.786;22.760;2024-02-21T01:41:54;99838.33;;;5.38;89.14
58662;BME280;44432;49.786;22.760;2024-02-21T01:44:24;99837.54;;;5.37;89.20
58662;BME280;44432;49.786;22.760;2024-02-21T01:46:55;99833.16;;;5.37;89.32
58662;BME280;44432;49.786;22.760;2024-02-21T01:49:26;99834.95;;;5.37;89.17
58662;BME280;44432;49.786;22.760;2024-02-21T01:51:57;99831.32;;;5.36;89.40
58662;BME280;44432;49.786;22.760;2024-02-21T01:54:28;99833.39;;;5.37;89.31
58662;BME280;44432;49.786;22.760;2024-02-21T01:56:59;99832.36;;;5.37;89.58
58662;BME280;44432;49.786;22.760;2024-02-21T01:59:30;99836.42;;;5.38;89.48
58662;BME280;44432;49.786;22.760;2024-02-21T02:02:01;99836.42;;;5.39;89.74
58662;BME280;44432;49.786;22.760;2024-02-21T02:04:32;99837.77;;;5.40;89.33
58662;BME280;44432;49.786;22.760;2024-02-21T02:07:07;99836.20;;;5.40;89.25
58662;BME280;44432;49.786;22.760;2024-02-21T02:09:38;99834.40;;;5.40;89.40
58662;BME280;44432;49.786;22.760;2024-02-21T02:12:09;99833.98;;;5.41;89.34
58662;BME280;44432;49.786;22.760;2024-02-21T02:14:40;99835.23;;;5.42;89.53
58662;BME280;44432;49.786;22.760;2024-02-21T02:17:11;99831.61;;;5.42;89.53
58662;BME280;44432;49.786;22.760;2024-02-21T02:19:42;99833.48;;;5.44;89.67
58662;BME280;44432;49.786;22.760;2024-02-21T02:22:17;99831.21;;;5.44;89.30
58662;BME280;44432;49.786;22.760;2024-02-21T02:24:50;99834.75;;;5.45;89.45
58662;BME280;44432;49.786;22.760;2024-02-21T02:27:21;99837.08;;;5.44;89.50
58662;BME280;44432;49.786;22.760;2024-02-21T02:29:54;99839.20;;;5.44;89.45
58662;BME280;44432;49.786;22.760;2024-02-21T02:32:25;99836.16;;;5.43;89.44
58662;BME280;44432;49.786;22.760;2024-02-21T02:34:55;99839.59;;;5.44;89.37
58662;BME280;44432;49.786;22.760;2024-02-21T02:37:26;99840.15;;;5.44;89.36
58662;BME280;44432;49.786;22.760;2024-02-21T02:39:57;99838.58;;;5.43;89.10
58662;BME280;44432;49.786;22.760;2024-02-21T02:42:28;99835.37;;;5.44;89.54
58662;BME280;44432;49.786;22.760;2024-02-21T02:44:58;99836.62;;;5.44;89.28
58662;BME280;44432;49.786;22.760;2024-02-21T02:47:30;99838.05;;;5.43;89.23
58662;BME280;44432;49.786;22.760;2024-02-21T02:50:00;99836.52;;;5.43;89.48
58662;BME280;44432;49.786;22.760;2024-02-21T02:52:31;99838.98;;;5.43;89.49
58662;BME280;44432;49.786;22.760;2024-02-21T02:55:02;99839.95;;;5.42;89.40
58662;BME280;44432;49.786;22.760;2024-02-21T02:57:33;99840.48;;;5.42;89.50
58662;BME280;44432;49.786;22.760;2024-02-21T03:00:06;99844.64;;;5.42;89.35
58662;BME280;44432;49.786;22.760;2024-02-21T03:02:37;99841.27;;;5.43;89.41
58662;BME280;44432;49.786;22.760;2024-02-21T03:05:14;99844.89;;;5.42;89.27
58662;BME280;44432;49.786;22.760;2024-02-21T03:07:46;99843.33;;;5.42;89.38
58662;BME280;44432;49.786;22.760;2024-02-21T03:10:17;99845.13;;;5.41;89.12
58662;BME280;44432;49.786;22.760;2024-02-21T03:12:48;99841.17;;;5.41;89.15
58662;BME280;44432;49.786;22.760;2024-02-21T03:15:19;99838.72;;;5.41;89.46
58662;BME280;44432;49.786;22.760;2024-02-21T03:17:49;99841.63;;;5.41;89.46
58662;BME280;44432;49.786;22.760;2024-02-21T03:20:20;99848.80;;;5.41;89.50
58662;BME280;44432;49.786;22.760;2024-02-21T03:22:51;99844.97;;;5.41;89.61
58662;BME280;44432;49.786;22.760;2024-02-21T03:25:22;99852.40;;;5.42;89.46
58662;BME280;44432;49.786;22.760;2024-02-21T03:27:53;99847.55;;;5.41;89.59
58662;BME280;44432;49.786;22.760;2024-02-21T03:30:23;99851.15;;;5.42;89.60
58662;BME280;44432;49.786;22.760;2024-02-21T03:32:54;99850.70;;;5.41;89.73
58662;BME280;44432;49.786;22.760;2024-02-21T03:35:25;99845.98;;;5.40;89.48
58662;BME280;44432;49.786;22.760;2024-02-21T03:37:56;99847.52;;;5.38;89.50
58662;BME280;44432;49.786;22.760;2024-02-21T03:40:27;99844.65;;;5.34;89.31
58662;BME280;44432;49.786;22.760;2024-02-21T03:42:58;99848.90;;;5.32;89.38
58662;BME280;44432;49.786;22.760;2024-02-21T03:45:29;99845.14;;;5.30;89.56
58662;BME280;44432;49.786;22.760;2024-02-21T03:47:59;99846.52;;;5.28;89.52
58662;BME280;44432;49.786;22.760;2024-02-21T03:50:30;99843.46;;;5.27;89.70
58662;BME280;44432;49.786;22.760;2024-02-21T03:53:01;99843.11;;;5.25;89.56
58662;BME280;44432;49.786;22.760;2024-02-21T03:55:32;99841.08;;;5.25;89.76
58662;BME280;44432;49.786;22.760;2024-02-21T03:58:03;99841.87;;;5.24;89.63
58662;BME280;44432;49.786;22.760;2024-02-21T04:00:34;99846.64;;;5.24;89.58
58662;BME280;44432;49.786;22.760;2024-02-21T04:03:05;99846.90;;;5.23;89.57
58662;BME280;44432;49.786;22.760;2024-02-21T04:05:36;99844.64;;;5.23;89.52
58662;BME280;44432;49.786;22.760;2024-02-21T04:08:07;99843.73;;;5.21;89.49
58662;BME280;44432;49.786;22.760;2024-02-21T04:10:38;99847.86;;;5.20;89.33
58662;BME280;44432;49.786;22.760;2024-02-21T04:13:09;99848.51;;;5.18;89.45
58662;BME280;44432;49.786;22.760;2024-02-21T04:15:40;99850.66;;;5.19;89.63
58662;BME280;44432;49.786;22.760;2024-02-21T04:18:11;99846.06;;;5.18;89.56
58662;BME280;44432;49.786;22.760;2024-02-21T04:20:41;99848.98;;;5.20;89.77
58662;BME280;44432;49.786;22.760;2024-02-21T04:23:13;99848.67;;;5.20;89.60
58662;BME280;44432;49.786;22.760;2024-02-21T04:25:43;99847.62;;;5.18;89.41
58662;BME280;44432;49.786;22.760;2024-02-21T04:28:14;99852.43;;;5.17;89.56
58662;BME280;44432;49.786;22.760;2024-02-21T04:30:45;99854.91;;;5.17;89.68
58662;BME280;44432;49.786;22.760;2024-02-21T04:33:16;99854.95;;;5.16;89.90
58662;BME280;44432;49.786;22.760;2024-02-21T04:35:47;99856.72;;;5.16;89.75
58662;BME280;44432;49.786;22.760;2024-02-21T04:38:18;99857.38;;;5.15;89.97
58662;BME280;44432;49.786;22.760;2024-02-21T04:40:49;99857.37;;;5.15;89.94
58662;BME280;44432;49.786;22.760;2024-02-21T04:43:19;99859.17;;;5.15;90.09
58662;BME280;44432;49.786;22.760;2024-02-21T04:45:50;99856.81;;;5.14;89.98
58662;BME280;44432;49.786;22.760;2024-02-21T04:48:22;99857.23;;;5.13;90.15
58662;BME280;44432;49.786;22.760;2024-02-21T04:50:53;99859.56;;;5.13;90.13
58662;BME280;44432;49.786;22.760;2024-02-21T04:53:24;99862.08;;;5.12;90.12
58662;BME280;44432;49.786;22.760;2024-02-21T04:55:55;99862.80;;;5.10;90.04
58662;BME280;44432;49.786;22.760;2024-02-21T04:58:26;99863.23;;;5.09;90.20
58662;BME280;44432;49.786;22.760;2024-02-21T05:00:57;99866.27;;;5.07;89.72
58662;BME280;44432;49.786;22.760;2024-02-21T05:03:28;99863.12;;;5.04;89.69
58662;BME280;44432;49.786;22.760;2024-02-21T05:06:00;99870.35;;;5.03;89.57
58662;BME280;44432;49.786;22.760;2024-02-21T05:08:31;99866.45;;;5.02;89.33
58662;BME280;44432;49.786;22.760;2024-02-21T05:11:02;99862.73;;;5.01;89.29
58662;BME280;44432;49.786;22.760;2024-02-21T05:13:33;99857.66;;;5.00;89.19
58662;BME280;44432;49.786;22.760;2024-02-21T05:16:05;99864.66;;;4.99;88.91
58662;BME280;44432;49.786;22.760;2024-02-21T05:18:36;99869.65;;;4.98;89.12
58662;BME280;44432;49.786;22.760;2024-02-21T05:21:07;99870.60;;;4.96;88.84
58662;BME280;44432;49.786;22.760;2024-02-21T05:23:38;99870.20;;;4.93;88.74
58662;BME280;44432;49.786;22.760;2024-02-21T05:26:10;99875.27;;;4.89;88.71
58662;BME280;44432;49.786;22.760;2024-02-21T05:28:41;99879.58;;;4.86;88.73
58662;BME280;44432;49.786;22.760;2024-02-21T05:31:11;99882.71;;;4.83;88.71
58662;BME280;44432;49.786;22.760;2024-02-21T05:33:43;99886.30;;;4.81;88.80
58662;BME280;44432;49.786;22.760;2024-02-21T05:36:14;99886.76;;;4.78;88.81
58662;BME280;44432;49.786;22.760;2024-02-21T05:38:45;99888.55;;;4.74;88.56
58662;BME280;44432;49.786;22.760;2024-02-21T05:41:16;99895.40;;;4.69;88.40
58662;BME280;44432;49.786;22.760;2024-02-21T05:43:47;99897.57;;;4.63;88.12
58662;BME280;44432;49.786;22.760;2024-02-21T05:46:20;99896.94;;;4.57;88.14
58662;BME280;44432;49.786;22.760;2024-02-21T05:48:51;99899.77;;;4.54;88.05
58662;BME280;44432;49.786;22.760;2024-02-21T05:51:22;99898.70;;;4.49;87.97
58662;BME280;44432;49.786;22.760;2024-02-21T05:53:54;99898.27;;;4.46;88.03
58662;BME280;44432;49.786;22.760;2024-02-21T05:56:25;99898.87;;;4.42;87.95
58662;BME280;44432;49.786;22.760;2024-02-21T05:58:55;99897.88;;;4.39;87.88
58662;BME280;44432;49.786;22.760;2024-02-21T06:01:27;99897.86;;;4.35;87.81
58662;BME280;44432;49.786;22.760;2024-02-21T06:03:58;99901.51;;;4.32;87.71
58662;BME280;44432;49.786;22.760;2024-02-21T06:06:28;99903.07;;;4.29;87.63
58662;BME280;44432;49.786;22.760;2024-02-21T06:09:00;99905.51;;;4.27;87.72
58662;BME280;44432;49.786;22.760;2024-02-21T06:11:32;99903.41;;;4.25;87.58
58662;BME280;44432;49.786;22.760;2024-02-21T06:14:04;99901.67;;;4.23;87.63
58662;BME280;44432;49.786;22.760;2024-02-21T06:16:35;99903.34;;;4.24;87.74
58662;BME280;44432;49.786;22.760;2024-02-21T06:19:06;99904.73;;;4.24;87.78
58662;BME280;44432;49.786;22.760;2024-02-21T06:21:37;99903.77;;;4.23;87.67
58662;BME280;44432;49.786;22.760;2024-02-21T06:24:08;99901.30;;;4.23;87.76
58662;BME280;44432;49.786;22.760;2024-02-21T06:26:39;99905.81;;;4.24;87.85
58662;BME280;44432;49.786;22.760;2024-02-21T06:29:11;99904.08;;;4.23;87.73
58662;BME280;44432;49.786;22.760;2024-02-21T06:31:43;99905.73;;;4.26;87.87
58662;BME280;44432;49.786;22.760;2024-02-21T06:34:13;99907.48;;;4.32;87.92
58662;BME280;44432;49.786;22.760;2024-02-21T06:36:46;99906.41;;;4.39;88.18
58662;BME280;44432;49.786;22.760;2024-02-21T06:39:17;99910.39;;;4.45;88.16
58662;BME280;44432;49.786;22.760;2024-02-21T06:41:47;99910.62;;;4.53;88.18
58662;BME280;44432;49.786;22.760;2024-02-21T06:44:20;99908.23;;;4.61;88.27
58662;BME280;44432;49.786;22.760;2024-02-21T06:46:52;99902.17;;;4.71;88.22
58662;BME280;44432;49.786;22.760;2024-02-21T06:49:24;99906.32;;;4.78;88.04
58662;BME280;44432;49.786;22.760;2024-02-21T06:51:55;99905.94;;;4.85;87.92
58662;BME280;44432;49.786;22.760;2024-02-21T06:54:26;99902.94;;;4.90;87.81
58662;BME280;44432;49.786;22.760;2024-02-21T06:56:59;99903.86;;;4.95;87.65
58662;BME280;44432;49.786;22.760;2024-02-21T06:59:30;99909.23;;;5.00;87.51
58662;BME280;44432;49.786;22.760;2024-02-21T07:02:01;99912.95;;;5.05;87.18
58662;BME280;44432;49.786;22.760;2024-02-21T07:04:32;99913.14;;;5.09;87.28
58662;BME280;44432;49.786;22.760;2024-02-21T07:07:03;99914.66;;;5.16;87.15
58662;BME280;44432;49.786;22.760;2024-02-21T07:09:34;99911.02;;;5.21;86.70
58662;BME280;44432;49.786;22.760;2024-02-21T07:12:05;99906.79;;;5.26;86.62
58662;BME280;44432;49.786;22.760;2024-02-21T07:14:36;99900.25;;;5.30;86.51
58662;BME280;44432;49.786;22.760;2024-02-21T07:17:07;99895.20;;;5.33;86.25
58662;BME280;44432;49.786;22.760;2024-02-21T07:19:38;99895.77;;;5.34;86.30
58662;BME280;44432;49.786;22.760;2024-02-21T07:22:09;99896.15;;;5.34;85.56
58662;BME280;44432;49.786;22.760;2024-02-21T07:24:40;99901.33;;;5.32;85.31
58662;BME280;44432;49.786;22.760;2024-02-21T07:27:10;99900.55;;;5.29;85.06
58662;BME280;44432;49.786;22.760;2024-02-21T07:29:41;99902.80;;;5.29;84.98
58662;BME280;44432;49.786;22.760;2024-02-21T07:32:16;99897.66;;;5.33;85.11
58662;BME280;44432;49.786;22.760;2024-02-21T07:34:47;99898.88;;;5.38;85.12
58662;BME280;44432;49.786;22.760;2024-02-21T07:37:18;99895.23;;;5.41;84.78
58662;BME280;44432;49.786;22.760;2024-02-21T07:39:49;99901.02;;;5.44;84.85
58662;BME280;44432;49.786;22.760;2024-02-21T07:42:19;99902.86;;;5.46;84.71
58662;BME280;44432;49.786;22.760;2024-02-21T07:44:50;99902.58;;;5.47;84.64
58662;BME280;44432;49.786;22.760;2024-02-21T07:47:21;99893.48;;;5.49;84.71
58662;BME280;44432;49.786;22.760;2024-02-21T07:49:52;99893.31;;;5.49;84.25
58662;BME280;44432;49.786;22.760;2024-02-21T07:52:23;99892.81;;;5.51;84.02
58662;BME280;44432;49.786;22.760;2024-02-21T07:54:55;99891.63;;;5.53;84.21
58662;BME280;44432;49.786;22.760;2024-02-21T07:57:26;99883.71;;;5.55;83.83
58662;BME280;44432;49.786;22.760;2024-02-21T07:59:57;99885.96;;;5.61;83.65
58662;BME280;44432;49.786;22.760;2024-02-21T08:02:28;99888.71;;;5.66;83.46
58662;BME280;44432;49.786;22.760;2024-02-21T08:04:59;99886.54;;;5.73;83.17
58662;BME280;44432;49.786;22.760;2024-02-21T08:07:30;99884.92;;;5.78;82.59
58662;BME280;44432;49.786;22.760;2024-02-21T08:10:01;99886.65;;;5.83;82.34
58662;BME280;44432;49.786;22.760;2024-02-21T08:12:32;99887.74;;;5.91;82.32
58662;BME280;44432;49.786;22.760;2024-02-21T08:15:03;99890.06;;;5.97;82.03
58662;BME280;44432;49.786;22.760;2024-02-21T08:17:34;99891.94;;;6.05;81.79
58662;BME280;44432;49.786;22.760;2024-02-21T08:20:06;99895.81;;;6.14;81.49
58662;BME280;44432;49.786;22.760;2024-02-21T08:22:39;99895.21;;;6.23;81.23
58662;BME280;44432;49.786;22.760;2024-02-21T08:25:10;99893.77;;;6.31;80.60
58662;BME280;44432;49.786;22.760;2024-02-21T08:27:43;99894.02;;;6.40;80.55
58662;BME280;44432;49.786;22.760;2024-02-21T08:30:15;99895.23;;;6.48;79.77
58662;BME280;44432;49.786;22.760;2024-02-21T08:32:46;99889.35;;;6.58;80.10
58662;BME280;44432;49.786;22.760;2024-02-21T08:35:17;99888.95;;;6.71;80.12
58662;BME280;44432;49.786;22.760;2024-02-21T08:37:48;99887.45;;;6.87;80.42
58662;BME280;44432;49.786;22.760;2024-02-21T08:40:19;99883.27;;;7.04;80.17
58662;BME280;44432;49.786;22.760;2024-02-21T08:42:50;99881.03;;;7.19;79.89
58662;BME280;44432;49.786;22.760;2024-02-21T08:45:23;99872.34;;;7.29;79.26
58662;BME280;44432;49.786;22.760;2024-02-21T08:47:56;99872.77;;;7.40;78.89
58662;BME280;44432;49.786;22.760;2024-02-21T08:50:27;99872.93;;;7.51;78.35
58662;BME280;44432;49.786;22.760;2024-02-21T08:52:58;99872.61;;;7.61;78.32
58662;BME280;44432;49.786;22.760;2024-02-21T08:55:28;99875.16;;;7.75;78.10
58662;BME280;44432;49.786;22.760;2024-02-21T08:57:59;99871.69;;;7.91;77.79
58662;BME280;44432;49.786;22.760;2024-02-21T09:00:33;99875.11;;;8.08;77.41
58662;BME280;44432;49.786;22.760;2024-02-21T09:03:05;99875.67;;;8.19;76.54
58662;BME280;44432;49.786;22.760;2024-02-21T09:05:36;99869.04;;;8.25;75.76
58662;BME280;44432;49.786;22.760;2024-02-21T09:08:07;99867.30;;;8.27;75.46
58662;BME280;44432;49.786;22.760;2024-02-21T09:10:38;99867.38;;;8.29;75.41
58662;BME280;44432;49.786;22.760;2024-02-21T09:13:09;99865.96;;;8.35;75.45
58662;BME280;44432;49.786;22.760;2024-02-21T09:15:40;99865.69;;;8.36;74.67
58662;BME280;44432;49.786;22.760;2024-02-21T09:18:11;99863.42;;;8.30;73.39
58662;BME280;44432;49.786;22.760;2024-02-21T09:20:42;99860.92;;;8.27;73.63
58662;BME280;44432;49.786;22.760;2024-02-21T09:23:13;99853.52;;;8.23;73.59
58662;BME280;44432;49.786;22.760;2024-02-21T09:25:45;99853.91;;;8.26;73.57
58662;BME280;44432;49.786;22.760;2024-02-21T09:28:16;99855.02;;;8.30;73.55
58662;BME280;44432;49.786;22.760;2024-02-21T09:30:47;99857.58;;;8.32;72.24
58662;BME280;44432;49.786;22.760;2024-02-21T09:33:18;99854.13;;;8.27;72.28
58662;BME280;44432;49.786;22.760;2024-02-21T09:35:48;99849.75;;;8.29;72.44
58662;BME280;44432;49.786;22.760;2024-02-21T09:38:19;99851.95;;;8.37;72.73
58662;BME280;44432;49.786;22.760;2024-02-21T09:40:54;99847.35;;;8.46;72.43
58662;BME280;44432;49.786;22.760;2024-02-21T09:43:30;99849.39;;;8.57;72.01
58662;BME280;44432;49.786;22.760;2024-02-21T09:46:02;99846.17;;;8.66;71.94
58662;BME280;44432;49.786;22.760;2024-02-21T09:48:42;99845.86;;;8.76;71.66
58662;BME280;44432;49.786;22.760;2024-02-21T09:51:17;99843.63;;;8.87;71.54
58662;BME280;44432;49.786;22.760;2024-02-21T09:53:50;99839.90;;;9.03;70.93
58662;BME280;44432;49.786;22.760;2024-02-21T09:56:21;99837.60;;;9.22;70.82
58662;BME280;44432;49.786;22.760;2024-02-21T09:58:52;99833.53;;;9.37;70.32
58662;BME280;44432;49.786;22.760;2024-02-21T10:01:23;99829.91;;;9.49;69.33
58662;BME280;44432;49.786;22.760;2024-02-21T10:03:54;99822.79;;;9.50;68.54
58662;BME280;44432;49.786;22.760;2024-02-21T10:06:25;99819.98;;;9.48;67.96
58662;BME280;44432;49.786;22.760;2024-02-21T10:08:56;99814.96;;;9.45;68.36
58662;BME280;44432;49.786;22.760;2024-02-21T10:11:27;99813.66;;;9.36;67.88
58662;BME280;44432;49.786;22.760;2024-02-21T10:14:05;99811.93;;;9.20;67.89
58662;BME280;44432;49.786;22.760;2024-02-21T10:16:36;99806.72;;;9.07;68.20
58662;BME280;44432;49.786;22.760;2024-02-21T10:19:15;99804.13;;;8.94;68.16
58662;BME280;44432;49.786;22.760;2024-02-21T10:22:01;99806.20;;;8.74;67.38
58662;BME280;44432;49.786;22.760;2024-02-21T10:24:33;99800.40;;;8.50;67.40
58662;BME280;44432;49.786;22.760;2024-02-21T10:27:05;99801.52;;;8.38;67.06
58662;BME280;44432;49.786;22.760;2024-02-21T10:29:38;99797.05;;;8.26;67.28
58662;BME280;44432;49.786;22.760;2024-02-21T10:32:10;99802.19;;;8.23;67.36
58662;BME280;44432;49.786;22.760;2024-02-21T10:34:42;99800.70;;;8.23;67.48
58662;BME280;44432;49.786;22.760;2024-02-21T10:37:14;99793.47;;;8.28;68.05
58662;BME280;44432;49.786;22.760;2024-02-21T10:39:45;99787.54;;;8.36;68.30
58662;BME280;44432;49.786;22.760;2024-02-21T10:42:20;99783.40;;;8.46;68.15
58662;BME280;44432;49.786;22.760;2024-02-21T10:44:53;99781.80;;;8.56;67.94
58662;BME280;44432;49.786;22.760;2024-02-21T10:47:24;99774.95;;;8.65;67.04
58662;BME280;44432;49.786;22.760;2024-02-21T10:50:03;99773.95;;;8.73;67.14
58662;BME280;44432;49.786;22.760;2024-02-21T10:52:43;99763.50;;;8.82;66.60
58662;BME280;44432;49.786;22.760;2024-02-21T10:55:25;99763.41;;;8.94;66.56
58662;BME280;44432;49.786;22.760;2024-02-21T10:57:57;99764.48;;;9.11;65.79
58662;BME280;44432;49.786;22.760;2024-02-21T11:00:29;99766.10;;;9.27;65.77
58662;BME280;44432;49.786;22.760;2024-02-21T11:03:01;99756.70;;;9.50;65.97
58662;BME280;44432;49.786;22.760;2024-02-21T11:05:33;99749.08;;;9.74;65.49
58662;BME280;44432;49.786;22.760;2024-02-21T11:08:07;99742.23;;;9.92;64.64
58662;BME280;44432;49.786;22.760;2024-02-21T11:10:38;99739.81;;;10.06;63.01
58662;BME280;44432;49.786;22.760;2024-02-21T11:13:10;99745.72;;;10.14;62.34
58662;BME280;44432;49.786;22.760;2024-02-21T11:15:43;99746.55;;;10.21;61.33
58662;BME280;44432;49.786;22.760;2024-02-21T11:18:25;99737.54;;;10.18;60.41
58662;BME280;44432;49.786;22.760;2024-02-21T11:20:56;99733.22;;;10.12;59.66
58662;BME280;44432;49.786;22.760;2024-02-21T11:23:28;99728.95;;;10.10;60.06
58662;BME280;44432;49.786;22.760;2024-02-21T11:26:07;99720.55;;;10.13;60.23
58662;BME280;44432;49.786;22.760;2024-02-21T11:28:38;99722.95;;;10.20;60.69
58662;BME280;44432;49.786;22.760;2024-02-21T11:31:10;99722.94;;;10.27;60.35
58662;BME280;44432;49.786;22.760;2024-02-21T11:33:43;99722.54;;;10.30;59.31
58662;BME280;44432;49.786;22.760;2024-02-21T11:36:25;99719.38;;;10.34;59.59
58662;BME280;44432;49.786;22.760;2024-02-21T11:39:06;99713.38;;;10.39;59.68
58662;BME280;44432;49.786;22.760;2024-02-21T11:41:37;99708.08;;;10.44;59.73
58662;BME280;44432;49.786;22.760;2024-02-21T11:44:08;99707.36;;;10.51;59.68
58662;BME280;44432;49.786;22.760;2024-02-21T11:46:39;99706.88;;;10.57;59.18
58662;BME280;44432;49.786;22.760;2024-02-21T11:49:10;99706.89;;;10.59;58.64
58662;BME280;44432;49.786;22.760;2024-02-21T11:51:43;99701.48;;;10.65;58.56
58662;BME280;44432;49.786;22.760;2024-02-21T11:54:14;99700.23;;;10.72;58.56
58662;BME280;44432;49.786;22.760;2024-02-21T11:56:46;99696.89;;;10.84;57.95
58662;BME280;44432;49.786;22.760;2024-02-21T11:59:17;99703.77;;;10.90;57.64
58662;BME280;44432;49.786;22.760;2024-02-21T12:01:48;99688.40;;;10.96;57.39
58662;BME280;44432;49.786;22.760;2024-02-21T12:04:19;99687.55;;;11.00;56.98
58662;BME280;44432;49.786;22.760;2024-02-21T12:06:50;99684.16;;;11.02;56.90
58662;BME280;44432;49.786;22.760;2024-02-21T12:09:23;99677.05;;;11.02;56.65
58662;BME280;44432;49.786;22.760;2024-02-21T12:12:01;99678.44;;;10.99;56.35
58662;BME280;44432;49.786;22.760;2024-02-21T12:14:34;99675.52;;;10.93;55.82
58662;BME280;44432;49.786;22.760;2024-02-21T12:17:05;99672.77;;;10.88;56.08
58662;BME280;44432;49.786;22.760;2024-02-21T12:19:36;99671.19;;;10.86;56.97
58662;BME280;44432;49.786;22.760;2024-02-21T12:22:07;99668.98;;;10.91;56.82
58662;BME280;44432;49.786;22.760;2024-02-21T12:24:38;99663.85;;;10.94;57.08
58662;BME280;44432;49.786;22.760;2024-02-21T12:27:12;99664.30;;;11.00;57.54
58662;BME280;44432;49.786;22.760;2024-02-21T12:29:42;99662.22;;;11.03;57.22
58662;BME280;44432;49.786;22.760;2024-02-21T12:32:13;99660.99;;;11.02;56.59
58662;BME280;44432;49.786;22.760;2024-02-21T12:34:44;99656.80;;;11.01;56.36
58662;BME280;44432;49.786;22.760;2024-02-21T12:37:15;99658.97;;;11.00;56.55
58662;BME280;44432;49.786;22.760;2024-02-21T12:39:46;99656.98;;;11.01;56.61
58662;BME280;44432;49.786;22.760;2024-02-21T12:42:17;99654.33;;;11.07;55.96
58662;BME280;44432;49.786;22.760;2024-02-21T12:44:48;99655.00;;;11.11;56.26
58662;BME280;44432;49.786;22.760;2024-02-21T12:47:19;99649.31;;;11.14;55.28
58662;BME280;44432;49.786;22.760;2024-02-21T12:49:53;99645.40;;;11.14;55.52
58662;BME280;44432;49.786;22.760;2024-02-21T12:52:24;99643.45;;;11.13;55.73
58662;BME280;44432;49.786;22.760;2024-02-21T12:54:56;99640.20;;;11.12;55.52
58662;BME280;44432;49.786;22.760;2024-02-21T12:57:28;99634.48;;;11.06;55.55
58662;BME280;44432;49.786;22.760;2024-02-21T12:59:59;99630.06;;;11.05;55.78
58662;BME280;44432;49.786;22.760;2024-02-21T13:02:30;99625.21;;;11.08;55.97
58662;BME280;44432;49.786;22.760;2024-02-21T13:05:01;99621.27;;;11.12;55.71
58662;BME280;44432;49.786;22.760;2024-02-21T13:07:32;99618.52;;;11.13;56.03
58662;BME280;44432;49.786;22.760;2024-02-21T13:10:03;99620.77;;;11.16;55.72
58662;BME280;44432;49.786;22.760;2024-02-21T13:12:34;99623.16;;;11.13;55.38
58662;BME280;44432;49.786;22.760;2024-02-21T13:15:07;99625.63;;;11.06;55.03
58662;BME280;44432;49.786;22.760;2024-02-21T13:17:41;99623.34;;;10.95;54.66
58662;BME280;44432;49.786;22.760;2024-02-21T13:20:13;99619.20;;;10.87;55.18